Terminal Aerodrome Forecast
Issued by NWS

Home | Current Version | Previous Version | Text Only | Print | Product List | Glossary On
Versions: 1 2 3 4 5 6 7 8 9 10 11 12 13 14 15 16 17 18 19 20 21 22 23 24 25 26 27 28 29 30 31 32 33 34 35 36 37 38 39 40 41 42 43 44 45 46 47 48 49 50
000
FTUS41 KBOX 241129
TAFHYA
TAF
KHYA 241129Z 2412/2512 05009KT 2SM BR OVC003
     FM241500 05008KT P6SM OVC008
     FM242000 35008KT P6SM OVC008
     FM250000 29004KT 2SM BR OVC010
     FM250700 24005KT P6SM BKN040=

USA.gov is the U.S. government's official web portal to all federal, state and local government web resources and services.